Time;durP1;ratioP1;P1;durP2;ratioP2;P2;SDS_P1;SDS_P2;PMS_P1;PMS_P2;Temp;Humidity;BMP_temperature;BMP_pressure;BME280_temperature;BME280_humidity;BME280_pressure;Samples;Min_cycle;Max_cycle;Signal;HPM_P1;HPM_P2
2021/03/19 00:01:00;;;;;;;4.72;4.22;;;;;;;5.97;55.83;99912.06;5035786;28;20048;-71
2021/03/19 00:03:25;;;;;;;4.20;3.63;;;;;;;5.91;55.90;99916.09;5035750;28;20026;-71
2021/03/19 00:05:51;;;;;;;4.53;4.10;;;;;;;5.95;55.68;99915.13;5035440;28;20132;-71
2021/03/19 00:08:16;;;;;;;7.32;4.20;;;;;;;5.98;54.88;99908.94;5035372;28;20056;-71
2021/03/19 00:10:44;;;;;;;4.88;4.10;;;;;;;6.08;54.86;99907.72;5035892;28;20077;-71
2021/03/19 00:13:10;;;;;;;6.82;5.63;;;;;;;5.95;55.15;99911.56;5036194;28;20468;-71
2021/03/19 00:15:37;;;;;;;6.15;5.28;;;;;;;5.95;55.81;99914.31;5035228;28;20030;-71
2021/03/19 00:18:03;;;;;;;6.63;5.28;;;;;;;5.97;55.67;99906.53;5035154;28;20072;-71
2021/03/19 00:20:35;;;;;;;4.65;4.18;;;;;;;5.93;55.45;99911.09;5035654;28;20030;-71
2021/03/19 00:23:01;;;;;;;5.03;4.03;;;;;;;5.81;55.26;99898.03;5035348;28;20427;-71
2021/03/19 00:25:26;;;;;;;4.13;3.70;;;;;;;5.78;55.55;99910.53;5035053;28;20021;-71
2021/03/19 00:27:52;;;;;;;4.55;4.10;;;;;;;5.79;55.69;99903.88;5035815;28;20041;-71
2021/03/19 00:30:18;;;;;;;5.28;4.70;;;;;;;5.75;56.10;99902.94;5034963;28;20117;-71
2021/03/19 00:32:44;;;;;;;8.00;4.88;;;;;;;5.77;55.65;99902.59;5034155;28;20037;-71
2021/03/19 00:35:11;;;;;;;5.55;3.70;;;;;;;5.90;55.38;99908.97;5035497;28;20035;-71
2021/03/19 00:37:36;;;;;;;4.38;3.67;;;;;;;5.47;55.71;99860.44;5018408;28;20551;-71
2021/03/19 00:40:06;;;;;;;5.97;3.88;;;;;;;5.78;55.89;99910.53;5034859;28;20061;-71
2021/03/19 00:42:31;;;;;;;4.45;3.60;;;;;;;5.66;55.39;99891.16;5034696;28;20064;-71
2021/03/19 00:44:57;;;;;;;5.07;4.28;;;;;;;5.69;55.84;99895.97;5034656;28;20080;-71
2021/03/19 00:47:22;;;;;;;6.15;4.38;;;;;;;5.64;54.90;99893.44;5034905;28;20182;-71
2021/03/19 00:49:48;;;;;;;5.35;4.18;;;;;;;5.76;55.17;99899.03;5034642;28;20045;-71
2021/03/19 00:52:13;;;;;;;5.47;4.45;;;;;;;5.65;54.66;99888.75;5034460;28;20033;-71
2021/03/19 00:54:39;;;;;;;5.68;4.20;;;;;;;5.56;55.77;99885.22;5034379;28;20037;-71
2021/03/19 00:57:05;;;;;;;4.60;3.95;;;;;;;5.56;56.18;99888.81;5034712;28;20365;-71
2021/03/19 00:59:30;;;;;;;5.38;4.00;;;;;;;5.59;56.03;99887.31;5034939;28;20051;-71
2021/03/19 01:01:56;;;;;;;4.38;3.38;;;;;;;5.58;55.99;99883.75;5034697;28;20026;-71
2021/03/19 01:04:21;;;;;;;3.40;3.10;;;;;;;5.57;55.56;99882.13;5034058;28;20494;-71
2021/03/19 01:06:47;;;;;;;4.68;3.30;;;;;;;5.59;55.62;99890.06;5034296;28;20120;-71
2021/03/19 01:09:13;;;;;;;3.22;2.92;;;;;;;5.45;55.60;99893.09;5034526;28;20038;-71
2021/03/19 01:11:40;;;;;;;4.72;3.05;;;;;;;5.42;56.24;99891.00;5034195;28;20034;-71
2021/03/19 01:14:06;;;;;;;3.72;3.08;;;;;;;5.36;55.83;99886.81;5034462;28;20025;-71
2021/03/19 01:16:34;;;;;;;4.50;2.63;;;;;;;5.26;55.78;99888.81;5034411;28;20030;-71
2021/03/19 01:19:00;;;;;;;2.72;2.53;;;;;;;5.30;55.83;99896.44;5033814;28;20084;-71
2021/03/19 01:21:26;;;;;;;4.18;2.53;;;;;;;5.28;56.31;99879.44;5034253;28;20056;-71
2021/03/19 01:23:51;;;;;;;2.92;2.63;;;;;;;5.26;55.21;99888.03;5033934;28;20032;-71
2021/03/19 01:26:17;;;;;;;4.60;2.72;;;;;;;5.17;55.74;99884.53;5034720;28;20033;-71
2021/03/19 01:28:46;;;;;;;3.30;3.03;;;;;;;5.19;55.91;99883.03;5034497;28;20474;-71
2021/03/19 01:31:14;;;;;;;3.80;2.85;;;;;;;5.24;55.41;99874.56;5034200;28;20040;-71
2021/03/19 01:33:39;;;;;;;3.78;3.00;;;;;;;5.04;55.64;99863.50;5034032;28;20029;-71
2021/03/19 01:36:06;;;;;;;3.40;3.10;;;;;;;5.13;55.37;99873.34;5034185;28;20036;-71
2021/03/19 01:38:37;;;;;;;3.53;3.17;;;;;;;5.15;55.10;99884.03;5034222;28;20037;-71
2021/03/19 01:41:04;;;;;;;2.60;2.40;;;;;;;5.14;55.58;99871.41;5033938;28;20033;-71
2021/03/19 01:43:43;;;;;;;6.70;2.92;;;;;;;4.98;55.96;99876.69;5033427;28;20025;-71
2021/03/19 01:46:49;;;;;;;5.38;3.60;;;;;;;4.99;56.00;99876.34;5033837;28;20033;-71
2021/03/19 01:49:53;;;;;;;3.58;3.22;;;;;;;4.88;55.91;99869.59;5034017;28;20116;-71
2021/03/19 01:52:56;;;;;;;4.22;3.22;;;;;;;4.91;56.18;99870.91;5033899;28;20033;-71
2021/03/19 01:55:59;;;;;;;3.00;2.78;;;;;;;4.94;56.44;99872.97;5034224;28;20033;-71
2021/03/19 01:59:02;;;;;;;4.13;3.60;;;;;;;4.95;56.61;99871.81;5033345;28;20040;-71
2021/03/19 02:02:05;;;;;;;3.13;2.80;;;;;;;4.90;57.04;99877.53;5033574;28;20068;-72
2021/03/19 02:05:08;;;;;;;3.78;3.42;;;;;;;4.89;57.11;99879.47;5035754;28;20147;-71
2021/03/19 02:08:11;;;;;;;5.30;2.67;;;;;;;4.90;56.72;99869.25;5033360;28;20483;-71
2021/03/19 02:11:14;;;;;;;3.53;3.10;;;;;;;4.96;56.70;99873.47;5033150;28;20552;-71
2021/03/19 02:14:17;;;;;;;3.95;3.08;;;;;;;4.90;57.06;99869.25;5033831;28;20040;-71
2021/03/19 02:17:19;;;;;;;4.00;3.42;;;;;;;4.80;57.24;99864.13;5033062;28;20439;-71
2021/03/19 02:20:22;;;;;;;4.55;3.72;;;;;;;4.92;57.13;99869.75;5033506;28;20129;-71
2021/03/19 02:23:25;;;;;;;3.10;2.80;;;;;;;4.99;57.00;99865.31;5033187;28;20037;-71
2021/03/19 02:26:28;;;;;;;4.22;3.47;;;;;;;4.87;57.05;99865.22;5032598;28;20455;-71
2021/03/19 02:29:31;;;;;;;3.63;3.33;;;;;;;4.81;57.48;99860.25;5032802;28;20034;-71
2021/03/19 02:32:18;;;;;;;4.15;3.35;;;;;;;4.84;57.41;99860.38;5032619;28;20029;-71
2021/03/19 02:34:53;;;;;;;4.43;3.80;;;;;;;4.84;58.45;99857.59;5033284;28;20034;-71
2021/03/19 02:37:38;;;;;;;4.45;3.55;;;;;;;4.92;57.77;99864.22;5033663;28;20025;-71
2021/03/19 02:40:10;;;;;;;3.83;3.40;;;;;;;4.88;57.35;99855.00;5018607;28;20042;-71
2021/03/19 02:42:35;;;;;;;3.10;2.80;;;;;;;4.87;56.96;99858.91;5032573;28;20052;-71
2021/03/19 02:45:01;;;;;;;3.58;3.20;;;;;;;4.89;56.37;99853.84;5032611;28;20057;-71
2021/03/19 02:47:27;;;;;;;3.42;2.80;;;;;;;4.82;56.78;99857.13;5032557;28;20033;-71
2021/03/19 02:49:53;;;;;;;3.15;2.85;;;;;;;4.81;57.02;99854.72;5016141;28;20037;-71
2021/03/19 02:52:23;;;;;;;2.95;2.67;;;;;;;4.88;57.22;99860.50;5032490;28;20032;-71
2021/03/19 02:54:50;;;;;;;2.85;2.58;;;;;;;4.86;56.59;99854.53;5032342;28;20108;-71
2021/03/19 02:57:19;;;;;;;3.92;3.30;;;;;;;4.72;56.20;99858.31;5032672;28;20021;-71
2021/03/19 02:59:44;;;;;;;3.40;2.72;;;;;;;4.70;56.30;99857.03;5032459;28;20025;-71
2021/03/19 03:02:10;;;;;;;3.53;3.13;;;;;;;4.78;56.85;99855.38;5034221;28;20095;-71
2021/03/19 03:04:36;;;;;;;3.47;3.00;;;;;;;4.63;57.60;99845.72;5032430;28;20116;-71
2021/03/19 03:07:01;;;;;;;3.03;2.58;;;;;;;4.65;57.56;99847.00;5032422;28;20078;-71
2021/03/19 03:09:30;;;;;;;2.72;2.50;;;;;;;4.60;57.36;99849.94;5033194;28;20030;-71
2021/03/19 03:11:57;;;;;;;2.95;2.72;;;;;;;4.54;57.93;99842.22;5032601;28;20106;-71
2021/03/19 03:14:29;;;;;;;5.63;3.25;;;;;;;4.53;58.72;99857.94;5033323;28;20108;-71
2021/03/19 03:17:00;;;;;;;3.22;2.88;;;;;;;4.46;58.67;99849.34;5033301;28;20029;-71
2021/03/19 03:19:29;;;;;;;3.28;2.97;;;;;;;4.41;58.88;99852.28;5031693;28;20057;-71
2021/03/19 03:21:55;;;;;;;3.28;2.97;;;;;;;4.51;59.38;99853.88;5032231;28;20480;-71
2021/03/19 03:24:23;;;;;;;3.55;2.83;;;;;;;4.56;57.90;99857.25;5034022;28;20022;-71
2021/03/19 03:26:48;;;;;;;4.80;4.10;;;;;;;4.57;58.05;99849.78;5032785;28;20032;-71
2021/03/19 03:29:14;;;;;;;7.43;5.00;;;;;;;4.49;58.36;99847.91;5032124;28;20116;-71
2021/03/19 03:31:43;;;;;;;9.25;7.32;;;;;;;4.49;58.31;99848.72;5032119;28;20034;-71
2021/03/19 03:34:10;;;;;;;10.52;6.40;;;;;;;4.42;58.63;99848.38;5032613;28;20030;-72
2021/03/19 03:36:41;;;;;;;10.00;7.00;;;;;;;4.39;57.83;99838.03;5032096;28;20037;-71
2021/03/19 03:39:13;;;;;;;8.00;5.93;;;;;;;4.49;57.96;99847.91;5033657;28;20048;-72
2021/03/19 03:41:40;;;;;;;5.75;5.10;;;;;;;4.51;57.85;99845.63;5033080;28;20018;-71
2021/03/19 03:44:07;;;;;;;5.80;4.22;;;;;;;4.46;57.74;99843.84;5032333;28;20036;-71
2021/03/19 03:46:32;;;;;;;3.17;2.92;;;;;;;4.44;57.61;99841.44;5032640;28;20415;-71
2021/03/19 03:49:00;;;;;;;3.65;3.22;;;;;;;4.37;58.29;99834.81;5032040;28;20131;-71
2021/03/19 03:51:28;;;;;;;7.03;4.45;;;;;;;4.32;58.55;99837.75;5032540;28;20360;-71
2021/03/19 03:53:54;;;;;;;4.93;4.13;;;;;;;4.26;59.05;99828.03;5033248;28;20037;-71
2021/03/19 03:56:20;;;;;;;3.85;3.50;;;;;;;4.33;59.01;99833.88;5032228;28;20021;-71
2021/03/19 03:58:46;;;;;;;5.30;4.50;;;;;;;4.49;57.99;99828.63;5032234;28;20033;-71
2021/03/19 04:01:12;;;;;;;4.45;4.05;;;;;;;4.43;57.95;99828.00;5015928;28;20035;-71
2021/03/19 04:03:38;;;;;;;4.93;4.43;;;;;;;4.38;58.58;99823.47;5031862;28;20029;-71
2021/03/19 04:06:05;;;;;;;7.28;4.85;;;;;;;4.54;57.97;99823.72;5032476;28;20033;-71
2021/03/19 04:08:33;;;;;;;8.45;4.25;;;;;;;4.39;58.90;99818.78;5034364;28;20368;-71
2021/03/19 04:11:02;;;;;;;4.93;3.53;;;;;;;4.47;58.80;99820.66;5036005;28;20044;-71
2021/03/19 04:13:29;;;;;;;4.00;3.65;;;;;;;4.59;57.93;99815.28;5035242;28;20025;-71
2021/03/19 04:15:56;;;;;;;3.15;2.85;;;;;;;4.53;58.03;99816.59;5035278;28;20032;-71
2021/03/19 04:18:23;;;;;;;4.25;3.60;;;;;;;4.57;58.54;99817.53;5034873;28;20049;-71
2021/03/19 04:20:52;;;;;;;4.22;3.10;;;;;;;4.46;58.33;99813.53;5035862;28;20038;-71
2021/03/19 04:23:23;;;;;;;5.40;4.00;;;;;;;4.37;58.45;99801.78;5035108;28;20036;-71
2021/03/19 04:25:52;;;;;;;4.47;3.65;;;;;;;4.34;58.95;99807.94;5036613;28;20458;-71
2021/03/19 04:28:20;;;;;;;6.13;4.05;;;;;;;4.32;59.87;99815.72;5035261;28;20383;-71
2021/03/19 04:30:47;;;;;;;4.63;4.00;;;;;;;4.27;60.32;99808.44;5035020;28;20041;-71
2021/03/19 04:33:20;;;;;;;3.80;3.42;;;;;;;4.27;60.80;99804.88;5035493;28;20048;-71
2021/03/19 04:35:47;;;;;;;6.05;3.90;;;;;;;4.29;60.73;99806.16;5034890;28;20037;-71
2021/03/19 04:38:16;;;;;;;7.07;4.57;;;;;;;4.25;60.68;99804.38;5035869;28;20025;-71
2021/03/19 04:40:45;;;;;;;4.35;3.40;;;;;;;4.41;60.01;99802.69;5035389;28;20051;-71
2021/03/19 04:43:12;;;;;;;5.80;2.85;;;;;;;4.39;58.79;99810.50;5034766;28;20061;-71
2021/03/19 04:45:40;;;;;;;6.45;2.95;;;;;;;4.18;59.63;99811.22;5018614;28;20120;-71
2021/03/19 04:48:06;;;;;;;3.38;2.58;;;;;;;4.24;59.19;99808.28;5035634;28;20061;-71
2021/03/19 04:50:33;;;;;;;3.05;2.38;;;;;;;4.24;58.71;99827.56;5018362;28;20045;-71
2021/03/19 04:52:59;;;;;;;2.17;2.08;;;;;;;4.27;58.89;99819.47;5035054;28;20376;-71
2021/03/19 04:55:25;;;;;;;2.85;2.22;;;;;;;4.19;58.49;99817.53;5035499;28;20456;-71
2021/03/19 04:57:51;;;;;;;2.17;1.98;;;;;;;4.10;58.70;99816.75;5035507;28;20083;-71
2021/03/19 05:00:19;;;;;;;3.28;2.20;;;;;;;4.05;59.18;99812.25;5035033;28;20427;-71
2021/03/19 05:02:46;;;;;;;2.33;2.10;;;;;;;3.97;59.55;99815.81;5035575;28;20065;-71
2021/03/19 05:05:22;;;;;;;2.50;2.00;;;;;;;4.07;59.29;99826.47;5034329;28;20035;-71
2021/03/19 05:07:48;;;;;;;5.63;2.50;;;;;;;4.12;59.63;99826.31;5034449;28;20396;-71
2021/03/19 05:10:16;;;;;;;2.90;1.92;;;;;;;4.04;59.48;99827.13;5034616;28;20042;-71
2021/03/19 05:12:41;;;;;;;2.42;2.22;;;;;;;4.07;58.83;99826.47;5034484;28;20534;-71
2021/03/19 05:15:08;;;;;;;2.78;1.60;;;;;;;3.98;58.61;99833.94;5034503;28;20058;-71
2021/03/19 05:17:34;;;;;;;2.05;1.85;;;;;;;3.94;59.45;99831.06;5020175;28;20083;-71
2021/03/19 05:20:01;;;;;;;2.58;2.03;;;;;;;3.88;58.84;99829.59;5037407;28;20050;-71
2021/03/19 05:22:27;;;;;;;2.40;2.20;;;;;;;3.95;58.92;99834.63;5037796;28;20128;-71
2021/03/19 05:24:52;;;;;;;3.05;2.75;;;;;;;4.38;58.11;99825.41;5037251;28;20064;-71
2021/03/19 05:27:18;;;;;;;3.35;3.05;;;;;;;5.02;56.09;99835.47;5037162;28;20093;-71
2021/03/19 05:29:44;;;;;;;3.60;3.05;;;;;;;5.52;54.71;99838.97;5055561;28;20044;-71
2021/03/19 05:32:10;;;;;;;4.32;3.92;;;;;;;5.67;53.45;99834.00;5036973;28;20033;-71
2021/03/19 05:34:38;;;;;;;3.70;3.40;;;;;;;5.94;53.75;99832.63;5037112;28;20052;-71
2021/03/19 05:37:04;;;;;;;5.13;3.15;;;;;;;6.33;52.00;99822.13;5037086;28;20044;-71
2021/03/19 05:39:30;;;;;;;3.42;3.00;;;;;;;7.17;50.39;99826.03;5020585;28;20029;-71
2021/03/19 05:41:58;;;;;;;2.78;2.58;;;;;;;7.75;48.37;99817.44;5036928;28;20040;-71
2021/03/19 05:44:27;;;;;;;2.50;2.25;;;;;;;8.58;47.04;99826.81;5037439;28;20417;-71
2021/03/19 05:47:02;;;;;;;5.95;2.90;;;;;;;9.14;44.62;99801.59;5036875;28;20025;-71
2021/03/19 05:49:31;;;;;;;5.55;2.70;;;;;;;9.90;42.33;99825.00;5037299;28;20111;-71
2021/03/19 05:51:58;;;;;;;3.00;2.63;;;;;;;10.59;41.16;99827.09;5054547;28;20027;-71
2021/03/19 05:54:35;;;;;;;3.83;3.47;;;;;;;11.14;39.71;99825.59;5036763;28;20067;-71
2021/03/19 05:57:03;;;;;;;3.10;2.83;;;;;;;11.80;38.66;99842.78;5037222;28;20375;-71
2021/03/19 05:59:35;;;;;;;3.55;3.25;;;;;;;12.34;37.08;99824.69;5036891;28;20467;-71
2021/03/19 06:02:02;;;;;;;4.10;3.70;;;;;;;12.30;36.44;99835.00;5037131;28;20029;-71
2021/03/19 06:04:30;;;;;;;4.20;3.80;;;;;;;11.64;36.38;99843.00;5054465;28;20033;-71
2021/03/19 06:07:02;;;;;;;3.45;3.15;;;;;;;10.58;38.60;99842.97;5036790;28;20437;-71
2021/03/19 06:09:37;;;;;;;4.05;3.35;;;;;;;10.66;39.24;99830.00;5036434;28;20029;-71
2021/03/19 06:12:15;;;;;;;4.03;3.20;;;;;;;10.94;38.55;99847.16;5036378;28;20029;-71
2021/03/19 06:14:40;;;;;;;9.80;4.85;;;;;;;10.70;39.59;99850.31;5038272;28;20033;-71
2021/03/19 06:17:23;;;;;;;3.47;3.17;;;;;;;11.16;38.78;99844.72;5038041;28;20028;-71
2021/03/19 06:19:56;;;;;;;4.32;3.40;;;;;;;11.02;38.58;99853.63;5036431;28;20037;-71
2021/03/19 06:22:36;;;;;;;4.43;3.85;;;;;;;10.07;39.58;99850.75;5037678;28;20025;-71
2021/03/19 06:25:20;;;;;;;4.75;3.78;;;;;;;11.17;38.27;99851.88;5037328;28;20086;-71
2021/03/19 06:27:53;;;;;;;7.93;4.50;;;;;;;10.88;37.76;99853.44;5036179;28;20468;-71
2021/03/19 06:30:37;;;;;;;4.85;4.15;;;;;;;11.22;37.30;99860.72;5035922;28;20033;-71
2021/03/19 06:33:11;;;;;;;7.40;4.43;;;;;;;12.09;35.99;99843.16;5036085;28;20021;-71
2021/03/19 06:35:39;;;;;;;5.70;4.07;;;;;;;12.50;35.18;99855.94;5036026;28;20086;-71
2021/03/19 06:38:26;;;;;;;4.07;3.70;;;;;;;11.94;36.24;99868.09;5053875;28;20021;-71
2021/03/19 06:40:53;;;;;;;5.90;4.97;;;;;;;12.10;36.24;99858.72;5035990;28;20032;-71
2021/03/19 06:43:29;;;;;;;5.22;4.55;;;;;;;12.42;35.89;99871.03;5036186;28;20112;-71
2021/03/19 06:46:22;;;;;;;5.63;4.80;;;;;;;12.74;34.81;99867.75;5035840;28;20041;-71
2021/03/19 06:49:02;;;;;;;7.50;4.50;;;;;;;13.20;34.79;99876.47;5036433;28;20076;-71
2021/03/19 06:51:30;;;;;;;5.68;4.47;;;;;;;12.78;35.47;99862.97;5035835;28;20107;-71
2021/03/19 06:54:17;;;;;;;6.65;4.47;;;;;;;13.19;35.25;99868.50;5035670;28;20031;-71
2021/03/19 06:57:03;;;;;;;5.68;4.50;;;;;;;13.03;35.27;99866.00;5036274;28;20037;-71
2021/03/19 06:59:58;;;;;;;5.90;4.60;;;;;;;12.68;35.77;99867.31;5035960;28;20036;-71
2021/03/19 07:02:30;;;;;;;6.55;4.85;;;;;;;13.14;35.93;99868.84;5034894;28;20049;-71
2021/03/19 07:05:37;;;;;;;9.07;6.18;;;;;;;13.10;35.41;99878.03;5035740;28;20053;-71
2021/03/19 07:08:02;;;;;;;5.32;4.25;;;;;;;11.99;37.20;99884.50;5027588;28;20076;-71
2021/03/19 07:10:40;;;;;;;4.35;3.92;;;;;;;12.77;35.37;99881.72;5036243;28;20024;-71
2021/03/19 07:13:36;;;;;;;4.72;4.22;;;;;;;12.49;36.26;99876.69;5035582;28;20497;-71
2021/03/19 07:16:13;;;;;;;5.22;4.60;;;;;;;13.14;34.34;99878.03;5035849;28;20349;-71
2021/03/19 07:19:09;;;;;;;8.65;5.07;;;;;;;13.88;34.22;99882.50;5053370;28;20052;-71
2021/03/19 07:21:55;;;;;;;4.82;4.07;;;;;;;13.89;33.84;99884.91;5029277;28;20552;-71
2021/03/19 07:24:21;;;;;;;4.32;3.92;;;;;;;13.81;33.84;99883.28;5036162;28;20353;-71
2021/03/19 07:26:55;;;;;;;4.80;4.30;;;;;;;12.93;34.63;99875.06;5035567;28;20051;-71
2021/03/19 07:29:44;;;;;;;5.72;4.95;;;;;;;12.96;35.06;99880.69;5036041;28;20417;-71
2021/03/19 07:32:13;;;;;;;5.80;4.57;;;;;;;12.45;36.03;99884.19;5035383;28;20028;-71
2021/03/19 07:35:10;;;;;;;5.10;4.10;;;;;;;12.40;36.52;99881.75;5035380;28;20474;-71
2021/03/19 07:37:52;;;;;;;9.82;5.15;;;;;;;13.01;35.87;99885.13;5032236;28;20479;-71
2021/03/19 07:40:32;;;;;;;23.10;20.63;;;;;;;12.10;36.48;99886.63;5035949;28;20040;-71
2021/03/19 07:43:07;;;;;;;5.53;4.97;;;;;;;12.66;35.46;99885.59;5038496;28;20375;-71
2021/03/19 07:45:51;;;;;;;4.82;4.05;;;;;;;12.28;36.54;99882.03;5039148;28;20063;-70
2021/03/19 07:48:34;;;;;;;4.45;4.00;;;;;;;12.36;35.75;99883.72;5057231;28;20028;-71
2021/03/19 07:51:09;;;;;;;6.43;5.07;;;;;;;12.71;36.00;99885.25;5039576;28;20029;-71
2021/03/19 07:53:46;;;;;;;5.57;4.80;;;;;;;12.42;35.72;99893.34;5038919;28;20483;-71
2021/03/19 07:56:18;;;;;;;7.53;4.85;;;;;;;11.39;36.79;99848.22;5039524;28;20114;-71
2021/03/19 07:59:01;;;;;;;5.22;4.55;;;;;;;11.19;38.39;99885.75;5038953;28;20497;-70
2021/03/19 08:01:36;;;;;;;5.97;5.25;;;;;;;10.45;40.23;99864.63;5039448;28;20036;-70
2021/03/19 08:04:10;;;;;;;7.25;4.88;;;;;;;10.90;39.94;99882.47;5038783;28;20025;-70
2021/03/19 08:06:42;;;;;;;5.55;4.55;;;;;;;11.05;39.36;99885.50;5039631;28;20032;-70
2021/03/19 08:09:26;;;;;;;5.10;3.85;;;;;;;10.78;39.85;99879.91;5038727;28;20029;-70
2021/03/19 08:11:55;;;;;;;5.72;4.60;;;;;;;11.42;37.85;99866.19;5039222;28;20523;-70
2021/03/19 08:14:47;;;;;;;4.30;3.55;;;;;;;11.81;36.65;99889.00;5038496;28;20025;-70
2021/03/19 08:17:27;;;;;;;3.70;3.30;;;;;;;12.05;35.55;99880.19;5039058;28;20420;-70
2021/03/19 08:20:13;;;;;;;3.80;2.78;;;;;;;11.39;37.20;99876.06;5056151;28;20029;-70
2021/03/19 08:23:08;;;;;;;4.45;3.28;;;;;;;11.58;37.02;99879.94;5024484;28;20045;-70
2021/03/19 08:25:44;;;;;;;4.20;3.00;;;;;;;11.46;38.13;99873.41;5014276;28;20041;-71
2021/03/19 08:28:18;;;;;;;4.18;3.60;;;;;;;11.46;38.86;99873.41;5041531;28;20032;-70
2021/03/19 08:31:02;;;;;;;5.38;3.63;;;;;;;11.24;38.45;99880.66;5038305;28;20475;-70
2021/03/19 08:33:52;;;;;;;3.65;3.35;;;;;;;12.18;36.46;99877.13;5038183;28;20115;-70
2021/03/19 08:36:28;;;;;;;5.70;3.38;;;;;;;11.88;36.67;99875.19;5038285;28;20032;-70
2021/03/19 08:39:10;;;;;;;3.13;2.83;;;;;;;12.95;34.50;99876.31;5038672;28;20348;-70
2021/03/19 08:41:45;;;;;;;4.10;3.00;;;;;;;12.41;36.13;99883.38;5038086;28;20053;-70
2021/03/19 08:44:18;;;;;;;4.13;3.50;;;;;;;12.11;36.25;99882.63;5038357;28;20033;-70
2021/03/19 08:47:42;;;;;;;3.95;3.13;;;;;;;11.45;37.89;99871.81;5038649;28;20029;-70
2021/03/19 08:50:40;;;;;;;4.60;3.23;;;;;;;11.47;38.29;99875.00;4974603;28;20401;-70
2021/03/19 08:53:14;;;;;;;6.43;3.35;;;;;;;11.56;37.80;99869.16;4958833;28;20561;-71
2021/03/19 08:55:42;;;;;;;6.38;4.90;;;;;;;11.84;37.83;99868.78;5028481;28;20099;-70
2021/03/19 08:58:30;;;;;;;4.40;3.35;;;;;;;11.85;37.83;99870.38;5037766;28;20036;-70
2021/03/19 09:01:02;;;;;;;5.80;3.80;;;;;;;11.33;38.43;99874.78;5038593;28;20021;-70
2021/03/19 09:03:36;;;;;;;7.32;5.10;;;;;;;11.27;38.06;99870.72;5037678;28;20040;-70
2021/03/19 09:06:05;;;;;;;5.35;3.60;;;;;;;11.22;38.14;99868.25;5037717;28;20025;-70
2021/03/19 09:08:43;;;;;;;3.92;3.50;;;;;;;11.60;37.76;99880.34;5037642;28;20033;-70
2021/03/19 09:11:13;;;;;;;3.33;3.00;;;;;;;10.99;38.39;99874.69;5038390;28;20090;-70
2021/03/19 09:14:10;;;;;;;3.75;3.17;;;;;;;10.58;38.65;99881.13;5055411;28;20039;-70
2021/03/19 09:16:57;;;;;;;3.72;3.22;;;;;;;10.58;39.05;99867.22;5037268;28;20119;-70
2021/03/19 09:19:32;;;;;;;3.90;3.20;;;;;;;10.18;38.90;99874.00;5033697;28;20046;-70
2021/03/19 09:22:19;;;;;;;4.05;3.45;;;;;;;10.27;39.88;99871.00;5034705;28;20116;-71
2021/03/19 09:25:14;;;;;;;3.45;3.15;;;;;;;10.24;39.45;99872.56;5034081;28;20038;-70
2021/03/19 09:28:00;;;;;;;5.45;3.35;;;;;;;10.03;39.89;99869.34;5035288;28;20041;-70
2021/03/19 09:30:38;;;;;;;3.67;3.08;;;;;;;9.97;40.03;99871.59;5034235;28;20093;-70
2021/03/19 09:33:04;;;;;;;2.60;2.40;;;;;;;9.95;38.95;99883.06;5035089;28;20515;-70
2021/03/19 09:35:59;;;;;;;5.32;4.25;;;;;;;10.41;38.76;99879.63;5033897;28;20064;-70
2021/03/19 09:38:24;;;;;;;5.50;3.67;;;;;;;10.53;38.36;99875.88;5025058;28;20091;-70
2021/03/19 09:41:02;;;;;;;2.97;2.78;;;;;;;10.42;37.87;99879.25;5033723;28;20025;-70
2021/03/19 09:43:48;;;;;;;8.20;3.60;;;;;;;10.54;38.00;99880.25;5034834;28;20079;-70
2021/03/19 09:46:27;;;;;;;4.93;3.30;;;;;;;10.74;37.27;99879.81;5033671;28;20072;-71
2021/03/19 09:48:55;;;;;;;4.03;3.30;;;;;;;10.69;37.79;99879.34;5033576;28;20022;-71
2021/03/19 09:51:28;;;;;;;6.95;5.57;;;;;;;10.91;37.69;99878.50;5033544;28;20060;-71
2021/03/19 09:53:54;;;;;;;5.00;2.35;;;;;;;10.74;37.12;99862.31;5034015;28;20044;-71
2021/03/19 09:56:25;;;;;;;7.40;5.38;;;;;;;10.95;37.92;99884.94;5033411;28;20123;-71
2021/03/19 09:58:54;;;;;;;6.43;3.20;;;;;;;11.02;36.89;99890.66;5033416;28;20033;-70
2021/03/19 10:01:26;;;;;;;6.90;3.80;;;;;;;11.44;35.99;99878.53;5033616;28;20443;-71
2021/03/19 10:03:57;;;;;;;5.22;2.90;;;;;;;11.25;36.02;99887.03;5033798;28;20546;-70
2021/03/19 10:06:28;;;;;;;6.63;3.17;;;;;;;11.08;36.04;99857.72;5033220;28;20037;-71
2021/03/19 10:09:08;;;;;;;7.93;3.22;;;;;;;11.44;36.12;99875.75;5033167;28;20480;-71
2021/03/19 10:11:34;;;;;;;8.32;4.55;;;;;;;11.92;34.85;99878.81;5033351;28;20044;-71
2021/03/19 10:14:24;;;;;;;5.40;4.57;;;;;;;11.73;35.25;99878.94;5033603;28;20034;-71
2021/03/19 10:16:49;;;;;;;6.80;4.20;;;;;;;11.26;36.24;99866.34;5033010;28;20091;-71
2021/03/19 10:19:16;;;;;;;4.20;3.60;;;;;;;11.09;35.85;99872.44;5032664;28;20053;-70
2021/03/19 10:21:49;;;;;;;10.98;4.25;;;;;;;11.58;35.37;99877.94;5033526;28;20026;-71
2021/03/19 10:24:26;;;;;;;3.88;3.00;;;;;;;11.71;34.58;99876.50;5033471;28;20095;-71
2021/03/19 10:26:59;;;;;;;8.70;5.55;;;;;;;11.84;34.95;99873.53;5033129;28;20487;-71
2021/03/19 10:29:34;;;;;;;8.40;6.60;;;;;;;12.03;34.62;99871.38;5034455;28;20111;-70
2021/03/19 10:32:04;;;;;;;5.50;3.70;;;;;;;12.24;33.84;99876.41;5034592;28;20040;-71
2021/03/19 10:34:41;;;;;;;4.50;3.88;;;;;;;12.16;33.49;99871.94;5033916;28;20033;-71
2021/03/19 10:37:40;;;;;;;6.55;3.38;;;;;;;12.35;33.48;99873.72;5032781;28;20035;-71
2021/03/19 10:40:17;;;;;;;4.03;3.00;;;;;;;12.28;33.27;99880.03;5016386;28;20072;-71
2021/03/19 10:42:52;;;;;;;12.55;5.13;;;;;;;12.45;34.09;99839.56;5032628;28;20075;-71
2021/03/19 10:45:29;;;;;;;19.27;4.95;;;;;;;12.91;33.60;99857.91;5032654;28;20128;-71
2021/03/19 10:48:21;;;;;;;6.22;4.47;;;;;;;13.07;32.30;99873.22;5032594;28;20022;-71
2021/03/19 10:50:57;;;;;;;10.73;4.70;;;;;;;12.87;32.89;99874.63;5032547;28;20033;-71
2021/03/19 10:53:41;;;;;;;5.57;3.22;;;;;;;12.51;32.91;99879.06;5033327;28;20444;-70
2021/03/19 10:56:08;;;;;;;5.60;3.63;;;;;;;12.60;33.33;99885.16;5033065;28;20096;-70
2021/03/19 10:58:46;;;;;;;4.78;3.92;;;;;;;12.12;33.37;99847.97;5032455;28;20531;-70
2021/03/19 11:01:34;;;;;;;8.38;5.10;;;;;;;12.25;33.83;99882.78;5032477;28;20033;-70
2021/03/19 11:04:38;;;;;;;4.90;4.20;;;;;;;12.26;33.72;99884.41;5032447;28;20048;-70
2021/03/19 11:07:30;;;;;;;6.05;4.68;;;;;;;12.45;34.43;99887.00;5030151;28;20053;-70
2021/03/19 11:10:12;;;;;;;6.93;5.55;;;;;;;12.45;34.07;99887.00;5032616;28;20112;-70
2021/03/19 11:12:47;;;;;;;9.88;8.13;;;;;;;12.31;33.86;99884.06;5032863;28;20029;-70
2021/03/19 11:15:15;;;;;;;8.10;6.38;;;;;;;12.10;34.89;99881.84;5032431;28;20029;-70
2021/03/19 11:17:42;;;;;;;11.50;9.10;;;;;;;11.79;35.24;99871.84;5038133;28;20060;-70
2021/03/19 11:20:30;;;;;;;11.25;9.27;;;;;;;11.67;34.38;99847.81;5058067;28;20029;-70
2021/03/19 11:22:56;;;;;;;8.27;6.38;;;;;;;12.19;35.19;99878.72;5030696;28;20048;-70
2021/03/19 11:25:42;;;;;;;12.15;10.85;;;;;;;12.18;35.31;99872.34;5040800;28;20029;-70
2021/03/19 11:28:20;;;;;;;10.57;6.90;;;;;;;12.09;36.29;99854.31;5056697;28;20029;-70
2021/03/19 11:30:46;;;;;;;16.13;13.40;;;;;;;12.10;36.12;99869.88;5039530;28;20029;-70
2021/03/19 11:33:17;;;;;;;14.45;11.05;;;;;;;12.16;36.93;99879.50;5039423;28;20036;-70
2021/03/19 11:36:02;;;;;;;9.05;7.28;;;;;;;11.92;37.05;99876.03;5039411;28;20022;-70
2021/03/19 11:38:40;;;;;;;9.73;7.97;;;;;;;12.15;37.22;99875.91;5039630;28;20114;-70
2021/03/19 11:41:31;;;;;;;12.80;9.48;;;;;;;12.07;36.29;99869.44;5039273;28;20025;-71
2021/03/19 11:43:57;;;;;;;20.13;11.40;;;;;;;12.03;34.13;99871.38;5039749;28;20459;-70
2021/03/19 11:46:24;;;;;;;12.10;9.65;;;;;;;12.09;33.15;99871.03;5056883;28;20029;-70
2021/03/19 11:48:51;;;;;;;7.95;5.65;;;;;;;12.10;33.44;99864.31;5039389;28;20032;-70
2021/03/19 11:51:21;;;;;;;9.18;8.07;;;;;;;12.01;33.79;99864.59;5039118;28;20029;-70
2021/03/19 11:53:47;;;;;;;16.17;11.85;;;;;;;12.02;33.99;99864.19;5056840;28;20049;-70
2021/03/19 11:56:13;;;;;;;8.55;7.15;;;;;;;11.91;34.84;99852.13;5039194;28;20090;-70
2021/03/19 11:58:44;;;;;;;5.95;5.35;;;;;;;12.01;34.77;99865.38;5039014;28;20033;-70
2021/03/19 12:01:10;;;;;;;7.50;6.18;;;;;;;11.89;34.78;99848.13;5038938;28;20029;-70
2021/03/19 12:03:45;;;;;;;9.82;6.07;;;;;;;11.84;34.07;99846.47;5039381;28;20060;-70
2021/03/19 12:06:14;;;;;;;14.10;12.05;;;;;;;11.79;33.94;99855.13;5039095;28;20116;-70
2021/03/19 12:08:41;;;;;;;7.28;6.30;;;;;;;11.64;34.20;99836.63;5055108;28;20063;-70
2021/03/19 12:11:11;;;;;;;14.88;10.65;;;;;;;11.63;34.52;99851.75;5039273;28;20042;-70